sensor_id;sensor_type;location;lat;lon;timestamp;pressure;altitude;pressure_sealevel;temperature;humidity
44481;BME280;30184;42.018;23.670;2023-02-19T00:02:04;91926.53;;;1.57;82.20
44481;BME280;30184;42.018;23.670;2023-02-19T00:04:35;91932.63;;;1.54;82.33
44481;BME280;30184;42.018;23.670;2023-02-19T00:07:04;91922.63;;;1.51;82.48
44481;BME280;30184;42.018;23.670;2023-02-19T00:09:32;91849.78;;;0.68;82.86
44481;BME280;30184;42.018;23.670;2023-02-19T00:12:01;91932.53;;;1.47;82.77
44481;BME280;30184;42.018;23.670;2023-02-19T00:14:30;91925.22;;;1.44;82.85
44481;BME280;30184;42.018;23.670;2023-02-19T00:16:59;91926.31;;;1.39;83.07
44481;BME280;30184;42.018;23.670;2023-02-19T00:19:28;91924.38;;;1.36;83.10
44481;BME280;30184;42.018;23.670;2023-02-19T00:21:58;91904.41;;;1.27;83.11
44481;BME280;30184;42.018;23.670;2023-02-19T00:24:27;91922.00;;;1.31;83.23
44481;BME280;30184;42.018;23.670;2023-02-19T00:26:56;91843.16;;;0.55;83.12
44481;BME280;30184;42.018;23.670;2023-02-19T00:29:26;91913.97;;;1.28;83.40
44481;BME280;30184;42.018;23.670;2023-02-19T00:31:55;91913.13;;;1.24;83.40
44481;BME280;30184;42.018;23.670;2023-02-19T00:34:24;91896.56;;;1.11;83.49
44481;BME280;30184;42.018;23.670;2023-02-19T00:36:53;91907.34;;;1.18;83.55
44481;BME280;30184;42.018;23.670;2023-02-19T00:39:23;91903.13;;;1.17;83.57
44481;BME280;30184;42.018;23.670;2023-02-19T00:41:52;91899.63;;;1.13;83.95
44481;BME280;30184;42.018;23.670;2023-02-19T00:44:21;91913.72;;;1.10;84.15
44481;BME280;30184;42.018;23.670;2023-02-19T00:46:50;91907.63;;;1.09;84.01
44481;BME280;30184;42.018;23.670;2023-02-19T00:49:20;91901.84;;;1.07;84.06
44481;BME280;30184;42.018;23.670;2023-02-19T00:51:51;91905.66;;;1.06;84.02
44481;BME280;30184;42.018;23.670;2023-02-19T00:54:21;91776.72;;;-0.03;84.04
44481;BME280;30184;42.018;23.670;2023-02-19T00:56:51;91845.50;;;0.33;84.17
44481;BME280;30184;42.018;23.670;2023-02-19T00:59:20;91893.34;;;0.98;84.52
44481;BME280;30184;42.018;23.670;2023-02-19T01:01:49;91882.22;;;0.96;84.65
44481;BME280;30184;42.018;23.670;2023-02-19T01:04:18;91892.91;;;0.96;84.80
44481;BME280;30184;42.018;23.670;2023-02-19T01:06:47;91883.22;;;0.85;84.76
44481;BME280;30184;42.018;23.670;2023-02-19T01:09:16;91888.28;;;0.93;84.80
44481;BME280;30184;42.018;23.670;2023-02-19T01:11:45;91884.81;;;0.89;84.96
44481;BME280;30184;42.018;23.670;2023-02-19T01:14:16;91866.75;;;0.79;85.06
44481;BME280;30184;42.018;23.670;2023-02-19T01:16:44;91850.84;;;0.60;85.21
44481;BME280;30184;42.018;23.670;2023-02-19T01:19:13;91879.38;;;0.82;85.62
44481;BME280;30184;42.018;23.670;2023-02-19T01:21:42;91872.09;;;0.79;85.50
44481;BME280;30184;42.018;23.670;2023-02-19T01:24:11;91872.09;;;0.79;85.41
44481;BME280;30184;42.018;23.670;2023-02-19T01:26:40;91860.22;;;0.77;85.38
44481;BME280;30184;42.018;23.670;2023-02-19T01:29:10;91812.03;;;0.40;85.33
44481;BME280;30184;42.018;23.670;2023-02-19T01:31:40;91870.88;;;0.73;85.47
44481;BME280;30184;42.018;23.670;2023-02-19T01:34:10;91878.09;;;0.72;85.52
44481;BME280;30184;42.018;23.670;2023-02-19T01:36:39;91923.09;;;0.70;85.58
44481;BME280;30184;42.018;23.670;2023-02-19T01:39:09;91863.16;;;0.68;85.57
44481;BME280;30184;42.018;23.670;2023-02-19T01:41:40;91865.41;;;0.66;85.69
44481;BME280;30184;42.018;23.670;2023-02-19T01:47:13;91852.03;;;0.62;85.92
44481;BME280;30184;42.018;23.670;2023-02-19T01:49:45;91861.06;;;0.54;85.93
44481;BME280;30184;42.018;23.670;2023-02-19T01:52:20;91822.19;;;0.30;85.75
44481;BME280;30184;42.018;23.670;2023-02-19T01:54:54;91865.72;;;0.61;85.93
44481;BME280;30184;42.018;23.670;2023-02-19T01:57:26;91803.16;;;-0.17;86.24
44481;BME280;30184;42.018;23.670;2023-02-19T02:00:00;91793.91;;;-0.23;85.92
44481;BME280;30184;42.018;23.670;2023-02-19T02:02:41;91868.69;;;0.56;86.23
44481;BME280;30184;42.018;23.670;2023-02-19T02:05:17;91864.50;;;0.55;86.21
44481;BME280;30184;42.018;23.670;2023-02-19T02:07:48;91852.28;;;0.54;86.54
44481;BME280;30184;42.018;23.670;2023-02-19T02:10:34;91852.28;;;0.54;86.50
44481;BME280;30184;42.018;23.670;2023-02-19T02:13:03;91853.81;;;0.55;86.45
44481;BME280;30184;42.018;23.670;2023-02-19T02:15:49;91843.03;;;0.21;86.36
44481;BME280;30184;42.018;23.670;2023-02-19T02:18:29;91700.00;;;-0.85;86.41
44481;BME280;30184;42.018;23.670;2023-02-19T02:21:20;91850.78;;;0.56;86.46
44481;BME280;30184;42.018;23.670;2023-02-19T02:24:08;91806.91;;;0.27;86.43
44481;BME280;30184;42.018;23.670;2023-02-19T02:26:46;91853.09;;;0.58;86.55
44481;BME280;30184;42.018;23.670;2023-02-19T02:29:54;91855.75;;;0.58;86.47
44481;BME280;30184;42.018;23.670;2023-02-19T02:32:32;91793.31;;;-0.13;86.69
44481;BME280;30184;42.018;23.670;2023-02-19T02:35:07;91808.31;;;0.21;86.72
44481;BME280;30184;42.018;23.670;2023-02-19T02:37:41;91647.91;;;-1.05;86.83
44481;BME280;30184;42.018;23.670;2023-02-19T02:40:12;91845.41;;;0.53;87.13
44481;BME280;30184;42.018;23.670;2023-02-19T02:42:42;91849.19;;;0.52;86.97
44481;BME280;30184;42.018;23.670;2023-02-19T02:45:26;91868.13;;;0.43;87.11
44481;BME280;30184;42.018;23.670;2023-02-19T02:48:29;91854.13;;;0.50;86.94
44481;BME280;30184;42.018;23.670;2023-02-19T02:51:06;91848.34;;;0.48;86.90
44481;BME280;30184;42.018;23.670;2023-02-19T02:53:47;91847.19;;;0.45;86.81
44481;BME280;30184;42.018;23.670;2023-02-19T02:56:37;91769.47;;;-0.52;86.61
44481;BME280;30184;42.018;23.670;2023-02-19T02:59:09;91848.25;;;0.41;86.82
44481;BME280;30184;42.018;23.670;2023-02-19T03:01:42;91857.75;;;0.38;86.81
44481;BME280;30184;42.018;23.670;2023-02-19T03:04:33;91855.47;;;0.36;86.70
44481;BME280;30184;42.018;23.670;2023-02-19T03:07:07;91782.59;;;-0.17;86.71
44481;BME280;30184;42.018;23.670;2023-02-19T03:09:40;91859.44;;;0.23;86.81
44481;BME280;30184;42.018;23.670;2023-02-19T03:12:14;91865.31;;;0.32;86.81
44481;BME280;30184;42.018;23.670;2023-02-19T03:15:06;91853.91;;;0.09;87.01
44481;BME280;30184;42.018;23.670;2023-02-19T03:17:58;91864.88;;;0.30;87.06
44481;BME280;30184;42.018;23.670;2023-02-19T03:20:49;91867.53;;;0.27;87.52
44481;BME280;30184;42.018;23.670;2023-02-19T03:23:21;91856.25;;;0.14;87.40
44481;BME280;30184;42.018;23.670;2023-02-19T03:26:13;91739.69;;;-0.99;87.21
44481;BME280;30184;42.018;23.670;2023-02-19T03:28:49;91780.00;;;-0.36;87.48
44481;BME280;30184;42.018;23.670;2023-02-19T03:31:38;91869.34;;;0.23;87.40
44481;BME280;30184;42.018;23.670;2023-02-19T03:34:14;91858.25;;;0.21;87.46
44481;BME280;30184;42.018;23.670;2023-02-19T03:36:49;91738.16;;;-1.00;87.21
44481;BME280;30184;42.018;23.670;2023-02-19T03:39:21;91871.19;;;0.19;87.60
44481;BME280;30184;42.018;23.670;2023-02-19T03:41:56;91678.50;;;-1.19;87.69
44481;BME280;30184;42.018;23.670;2023-02-19T03:44:35;91877.66;;;0.18;87.89
44481;BME280;30184;42.018;23.670;2023-02-19T03:47:12;91861.06;;;0.05;87.95
44481;BME280;30184;42.018;23.670;2023-02-19T03:49:48;91832.50;;;-0.17;87.74
44481;BME280;30184;42.018;23.670;2023-02-19T03:52:24;91878.72;;;0.13;88.04
44481;BME280;30184;42.018;23.670;2023-02-19T03:55:02;91891.66;;;-0.12;88.09
44481;BME280;30184;42.018;23.670;2023-02-19T03:57:39;91887.81;;;-0.14;87.90
44481;BME280;30184;42.018;23.670;2023-02-19T04:00:16;91857.25;;;-0.17;87.89
44481;BME280;30184;42.018;23.670;2023-02-19T04:02:48;91708.44;;;-1.25;87.77
44481;BME280;30184;42.018;23.670;2023-02-19T04:05:24;91868.72;;;0.07;87.91
44481;BME280;30184;42.018;23.670;2023-02-19T04:07:57;91867.19;;;0.06;87.83
44481;BME280;30184;42.018;23.670;2023-02-19T04:10:33;91874.41;;;0.05;88.04
44481;BME280;30184;42.018;23.670;2023-02-19T04:13:05;91869.41;;;0.04;88.14
44481;BME280;30184;42.018;23.670;2023-02-19T04:15:39;91883.13;;;0.02;88.10
44481;BME280;30184;42.018;23.670;2023-02-19T04:18:13;91894.91;;;0.01;88.13
44481;BME280;30184;42.018;23.670;2023-02-19T04:20:45;91877.38;;;0.00;88.69
44481;BME280;30184;42.018;23.670;2023-02-19T04:23:17;91839.63;;;-0.48;88.60
44481;BME280;30184;42.018;23.670;2023-02-19T04:25:50;91885.75;;;-0.02;88.64
44481;BME280;30184;42.018;23.670;2023-02-19T04:28:20;91884.19;;;-0.03;88.62
44481;BME280;30184;42.018;23.670;2023-02-19T04:30:49;91822.13;;;-0.45;88.66
44481;BME280;30184;42.018;23.670;2023-02-19T04:33:18;91886.09;;;-0.03;88.61
44481;BME280;30184;42.018;23.670;2023-02-19T04:35:49;91881.09;;;-0.05;88.75
44481;BME280;30184;42.018;23.670;2023-02-19T04:38:18;91884.91;;;-0.06;88.79
44481;BME280;30184;42.018;23.670;2023-02-19T04:40:47;91885.25;;;-0.07;88.87
44481;BME280;30184;42.018;23.670;2023-02-19T04:43:17;91818.97;;;-0.51;89.00
44481;BME280;30184;42.018;23.670;2023-02-19T04:45:46;91902.38;;;-0.08;89.50
44481;BME280;30184;42.018;23.670;2023-02-19T04:48:15;91884.81;;;-0.09;89.51
44481;BME280;30184;42.018;23.670;2023-02-19T04:50:44;91890.16;;;-0.09;89.42
44481;BME280;30184;42.018;23.670;2023-02-19T04:53:14;91903.09;;;-0.11;89.86
44481;BME280;30184;42.018;23.670;2023-02-19T04:55:43;91901.56;;;-0.12;89.84
44481;BME280;30184;42.018;23.670;2023-02-19T04:58:13;91822.94;;;-0.64;89.82
44481;BME280;30184;42.018;23.670;2023-02-19T05:00:42;91889.84;;;-0.69;90.10
44481;BME280;30184;42.018;23.670;2023-02-19T05:03:11;91912.22;;;-0.12;90.18
44481;BME280;30184;42.018;23.670;2023-02-19T05:05:40;91921.34;;;-0.13;90.38
44481;BME280;30184;42.018;23.670;2023-02-19T05:08:09;91842.19;;;-0.93;90.37
44481;BME280;30184;42.018;23.670;2023-02-19T05:10:39;91914.47;;;-0.14;90.44
44481;BME280;30184;42.018;23.670;2023-02-19T05:13:08;91917.13;;;-0.14;90.43
44481;BME280;30184;42.018;23.670;2023-02-19T05:15:37;91969.59;;;-0.22;90.47
44481;BME280;30184;42.018;23.670;2023-02-19T05:18:06;91916.00;;;-0.13;90.56
44481;BME280;30184;42.018;23.670;2023-02-19T05:20:35;91916.00;;;-0.13;90.59
44481;BME280;30184;42.018;23.670;2023-02-19T05:23:04;91905.34;;;-0.13;90.42
44481;BME280;30184;42.018;23.670;2023-02-19T05:25:36;91924.44;;;-0.11;90.40
44481;BME280;30184;42.018;23.670;2023-02-19T05:28:06;91922.16;;;-0.09;90.59
44481;BME280;30184;42.018;23.670;2023-02-19T05:30:45;91916.47;;;-0.08;90.65
44481;BME280;30184;42.018;23.670;2023-02-19T05:33:15;91913.13;;;-0.05;90.98
44481;BME280;30184;42.018;23.670;2023-02-19T05:35:47;91929.19;;;-0.01;90.89
44481;BME280;30184;42.018;23.670;2023-02-19T05:38:17;91919.00;;;0.05;91.25
44481;BME280;30184;42.018;23.670;2023-02-19T05:40:46;91885.31;;;-0.46;91.23
44481;BME280;30184;42.018;23.670;2023-02-19T05:43:17;91867.03;;;-0.24;91.10
44481;BME280;30184;42.018;23.670;2023-02-19T05:45:45;91918.81;;;0.17;91.01
44481;BME280;30184;42.018;23.670;2023-02-19T05:48:14;91923.44;;;0.20;90.97
44481;BME280;30184;42.018;23.670;2023-02-19T05:50:43;91783.22;;;-0.92;90.81
44481;BME280;30184;42.018;23.670;2023-02-19T05:53:12;91929.72;;;0.31;90.92
44481;BME280;30184;42.018;23.670;2023-02-19T05:55:41;91872.09;;;0.04;90.57
44481;BME280;30184;42.018;23.670;2023-02-19T05:58:10;91904.94;;;0.30;90.61
44481;BME280;30184;42.018;23.670;2023-02-19T06:00:40;91931.97;;;0.52;90.70
44481;BME280;30184;42.018;23.670;2023-02-19T06:03:09;91917.44;;;0.49;90.57
44481;BME280;30184;42.018;23.670;2023-02-19T06:05:38;91882.50;;;0.35;89.88
44481;BME280;30184;42.018;23.670;2023-02-19T06:08:07;91928.94;;;0.80;89.54
44481;BME280;30184;42.018;23.670;2023-02-19T06:10:37;91869.19;;;0.38;89.39
44481;BME280;30184;42.018;23.670;2023-02-19T06:13:08;91944.88;;;0.99;89.39
44481;BME280;30184;42.018;23.670;2023-02-19T06:15:37;91925.47;;;1.02;89.30
44481;BME280;30184;42.018;23.670;2023-02-19T06:18:08;91939.06;;;1.20;89.05
44481;BME280;30184;42.018;23.670;2023-02-19T06:20:37;91958.28;;;1.29;88.85
44481;BME280;30184;42.018;23.670;2023-02-19T06:23:06;91933.53;;;1.35;88.71
44481;BME280;30184;42.018;23.670;2023-02-19T06:25:34;91912.84;;;1.32;88.56
44481;BME280;30184;42.018;23.670;2023-02-19T06:28:04;91808.03;;;0.56;88.32
44481;BME280;30184;42.018;23.670;2023-02-19T06:30:32;91941.91;;;1.67;88.21
44481;BME280;30184;42.018;23.670;2023-02-19T06:33:01;91937.72;;;1.66;88.13
44481;BME280;30184;42.018;23.670;2023-02-19T06:35:32;91944.38;;;1.79;87.30
44481;BME280;30184;42.018;23.670;2023-02-19T06:38:01;91950.31;;;1.99;86.82
44481;BME280;30184;42.018;23.670;2023-02-19T06:40:30;91949.13;;;1.97;86.26
44481;BME280;30184;42.018;23.670;2023-02-19T06:42:59;91960.06;;;2.18;85.67
44481;BME280;30184;42.018;23.670;2023-02-19T06:45:28;91960.97;;;2.29;85.38
44481;BME280;30184;42.018;23.670;2023-02-19T06:47:57;91953.78;;;2.40;85.16
44481;BME280;30184;42.018;23.670;2023-02-19T06:50:25;91916.19;;;2.30;84.77
44481;BME280;30184;42.018;23.670;2023-02-19T06:52:56;91963.91;;;2.61;84.43
44481;BME280;30184;42.018;23.670;2023-02-19T06:55:25;91926.31;;;2.50;83.47
44481;BME280;30184;42.018;23.670;2023-02-19T06:57:53;91948.81;;;2.86;83.42
44481;BME280;30184;42.018;23.670;2023-02-19T07:00:22;91954.63;;;2.99;82.78
44481;BME280;30184;42.018;23.670;2023-02-19T07:02:51;91968.88;;;3.10;82.20
44481;BME280;30184;42.018;23.670;2023-02-19T07:05:24;91830.97;;;2.39;82.10
44481;BME280;30184;42.018;23.670;2023-02-19T07:07:52;91937.69;;;3.43;81.85
44481;BME280;30184;42.018;23.670;2023-02-19T07:10:23;91938.53;;;3.61;81.68
44481;BME280;30184;42.018;23.670;2023-02-19T07:12:52;91940.91;;;3.80;81.59
44481;BME280;30184;42.018;23.670;2023-02-19T07:15:20;91933.69;;;3.98;81.23
44481;BME280;30184;42.018;23.670;2023-02-19T07:17:49;91936.44;;;4.16;80.65
44481;BME280;30184;42.018;23.670;2023-02-19T07:20:18;91927.63;;;4.33;79.74
44481;BME280;30184;42.018;23.670;2023-02-19T07:22:47;91933.41;;;4.46;78.44
44481;BME280;30184;42.018;23.670;2023-02-19T07:25:16;91928.81;;;4.64;78.34
44481;BME280;30184;42.018;23.670;2023-02-19T07:27:47;91925.34;;;4.85;77.83
44481;BME280;30184;42.018;23.670;2023-02-19T07:30:16;91875.03;;;4.75;77.65
44481;BME280;30184;42.018;23.670;2023-02-19T07:32:45;91925.31;;;5.31;76.44
44481;BME280;30184;42.018;23.670;2023-02-19T07:35:14;91915.66;;;5.51;75.69
44481;BME280;30184;42.018;23.670;2023-02-19T07:37:43;91915.97;;;5.71;74.29
44481;BME280;30184;42.018;23.670;2023-02-19T07:40:12;91919.03;;;5.91;73.67
44481;BME280;30184;42.018;23.670;2023-02-19T07:42:42;91895.50;;;6.02;73.58
44481;BME280;30184;42.018;23.670;2023-02-19T07:45:12;91914.56;;;6.32;72.21
44481;BME280;30184;42.018;23.670;2023-02-19T07:47:42;91912.91;;;6.53;71.81
44481;BME280;30184;42.018;23.670;2023-02-19T07:50:11;91907.75;;;6.72;71.02
44481;BME280;30184;42.018;23.670;2023-02-19T07:52:40;91908.41;;;6.87;68.01
44481;BME280;30184;42.018;23.670;2023-02-19T07:55:09;91900.94;;;7.05;68.79
44481;BME280;30184;42.018;23.670;2023-02-19T07:57:38;91843.25;;;6.92;68.84
44481;BME280;30184;42.018;23.670;2023-02-19T08:00:08;91893.28;;;7.41;67.43
44481;BME280;30184;42.018;23.670;2023-02-19T08:02:41;91878.41;;;7.26;66.06
44481;BME280;30184;42.018;23.670;2023-02-19T08:05:28;91898.72;;;7.75;66.15
44481;BME280;30184;42.018;23.670;2023-02-19T08:07:58;91751.25;;;6.83;66.15
44481;BME280;30184;42.018;23.670;2023-02-19T08:10:28;91890.16;;;8.14;65.89
44481;BME280;30184;42.018;23.670;2023-02-19T08:13:15;91887.59;;;8.31;64.00
44481;BME280;30184;42.018;23.670;2023-02-19T08:15:50;91878.91;;;8.46;63.60
44481;BME280;30184;42.018;23.670;2023-02-19T08:18:23;91879.81;;;8.63;62.94
44481;BME280;30184;42.018;23.670;2023-02-19T08:20:53;91859.16;;;8.49;61.80
44481;BME280;30184;42.018;23.670;2023-02-19T08:23:23;91859.03;;;8.83;62.07
44481;BME280;30184;42.018;23.670;2023-02-19T08:25:52;91871.22;;;8.95;61.56
44481;BME280;30184;42.018;23.670;2023-02-19T08:28:22;91828.97;;;8.78;61.19
44481;BME280;30184;42.018;23.670;2023-02-19T08:30:50;91861.91;;;9.19;61.26
44481;BME280;30184;42.018;23.670;2023-02-19T08:33:21;91864.78;;;9.32;59.96
44481;BME280;30184;42.018;23.670;2023-02-19T08:35:50;91863.84;;;9.42;59.95
44481;BME280;30184;42.018;23.670;2023-02-19T08:38:19;91862.75;;;9.59;58.99
44481;BME280;30184;42.018;23.670;2023-02-19T08:40:48;91851.94;;;9.79;59.07
44481;BME280;30184;42.018;23.670;2023-02-19T08:43:17;91861.91;;;10.02;58.68
44481;BME280;30184;42.018;23.670;2023-02-19T08:45:46;91858.75;;;10.27;57.64
44481;BME280;30184;42.018;23.670;2023-02-19T08:48:15;91848.53;;;10.51;55.44
44481;BME280;30184;42.018;23.670;2023-02-19T08:50:52;91846.00;;;10.76;55.67
44481;BME280;30184;42.018;23.670;2023-02-19T08:53:21;91841.69;;;10.95;52.11
44481;BME280;30184;42.018;23.670;2023-02-19T08:55:50;91810.72;;;10.76;51.41
44481;BME280;30184;42.018;23.670;2023-02-19T08:58:20;91827.41;;;11.39;48.70
44481;BME280;30184;42.018;23.670;2023-02-19T09:00:49;91824.44;;;11.63;49.93
44481;BME280;30184;42.018;23.670;2023-02-19T09:03:18;91815.81;;;11.80;48.42
44481;BME280;30184;42.018;23.670;2023-02-19T09:05:48;91808.59;;;12.03;48.29
44481;BME280;30184;42.018;23.670;2023-02-19T09:08:17;91809.19;;;12.23;48.56
44481;BME280;30184;42.018;23.670;2023-02-19T09:10:56;91809.31;;;12.45;47.37
44481;BME280;30184;42.018;23.670;2023-02-19T09:13:25;91808.31;;;12.64;47.35
44481;BME280;30184;42.018;23.670;2023-02-19T09:15:54;91805.06;;;12.82;44.62
44481;BME280;30184;42.018;23.670;2023-02-19T09:18:24;91790.22;;;12.95;43.38
44481;BME280;30184;42.018;23.670;2023-02-19T09:20:58;91789.00;;;13.09;43.11
44481;BME280;30184;42.018;23.670;2023-02-19T09:23:28;91762.06;;;13.11;42.05
44481;BME280;30184;42.018;23.670;2023-02-19T09:25:57;91717.63;;;12.67;42.47
44481;BME280;30184;42.018;23.670;2023-02-19T09:28:27;91769.72;;;13.51;43.01
44481;BME280;30184;42.018;23.670;2023-02-19T09:30:55;91763.31;;;13.66;42.08
44481;BME280;30184;42.018;23.670;2023-02-19T09:33:24;91737.56;;;13.67;41.76
44481;BME280;30184;42.018;23.670;2023-02-19T09:35:57;91743.16;;;13.86;39.74
44481;BME280;30184;42.018;23.670;2023-02-19T09:38:26;91763.63;;;14.12;39.29
44481;BME280;30184;42.018;23.670;2023-02-19T09:40:56;91747.94;;;14.25;39.96
44481;BME280;30184;42.018;23.670;2023-02-19T09:43:27;91746.75;;;14.35;38.98
44481;BME280;30184;42.018;23.670;2023-02-19T09:46:01;91744.53;;;14.43;38.30
44481;BME280;30184;42.018;23.670;2023-02-19T09:48:31;91738.03;;;14.49;38.72
44481;BME280;30184;42.018;23.670;2023-02-19T09:51:01;91737.63;;;14.60;38.91
44481;BME280;30184;42.018;23.670;2023-02-19T09:53:36;91725.56;;;14.79;39.29
44481;BME280;30184;42.018;23.670;2023-02-19T09:56:08;91725.59;;;14.98;37.99
44481;BME280;30184;42.018;23.670;2023-02-19T09:58:44;91720.75;;;15.20;38.48
44481;BME280;30184;42.018;23.670;2023-02-19T10:01:15;91714.56;;;15.38;37.84
44481;BME280;30184;42.018;23.670;2023-02-19T10:03:46;91703.88;;;15.49;37.35
44481;BME280;30184;42.018;23.670;2023-02-19T10:06:19;91680.22;;;15.46;35.82
44481;BME280;30184;42.018;23.670;2023-02-19T10:08:52;91693.47;;;15.56;35.46
44481;BME280;30184;42.018;23.670;2023-02-19T10:11:24;91686.00;;;15.66;35.75
44481;BME280;30184;42.018;23.670;2023-02-19T10:14:01;91697.53;;;15.70;35.98
44481;BME280;30184;42.018;23.670;2023-02-19T10:16:32;91625.81;;;15.39;35.83
44481;BME280;30184;42.018;23.670;2023-02-19T10:19:01;91657.56;;;15.73;36.21
44481;BME280;30184;42.018;23.670;2023-02-19T10:21:33;91670.28;;;15.94;36.68
44481;BME280;30184;42.018;23.670;2023-02-19T10:24:04;91664.09;;;15.84;36.16
44481;BME280;30184;42.018;23.670;2023-02-19T10:26:33;91664.63;;;15.97;37.42
44481;BME280;30184;42.018;23.670;2023-02-19T10:29:04;91643.50;;;15.98;36.59
44481;BME280;30184;42.018;23.670;2023-02-19T10:31:33;91648.31;;;16.21;37.65
44481;BME280;30184;42.018;23.670;2023-02-19T10:34:02;91642.94;;;16.27;36.67
44481;BME280;30184;42.018;23.670;2023-02-19T10:36:36;91634.38;;;16.34;36.13
44481;BME280;30184;42.018;23.670;2023-02-19T10:39:25;91627.34;;;16.42;36.43
44481;BME280;30184;42.018;23.670;2023-02-19T10:42:01;91629.41;;;16.56;36.29
44481;BME280;30184;42.018;23.670;2023-02-19T10:44:37;91627.97;;;16.70;35.80
44481;BME280;30184;42.018;23.670;2023-02-19T10:47:15;91563.84;;;16.53;35.56
44481;BME280;30184;42.018;23.670;2023-02-19T10:49:45;91581.53;;;16.75;34.49
44481;BME280;30184;42.018;23.670;2023-02-19T10:52:20;91603.41;;;16.99;34.94
44481;BME280;30184;42.018;23.670;2023-02-19T10:54:52;91597.56;;;17.06;34.85
44481;BME280;30184;42.018;23.670;2023-02-19T10:57:28;91600.16;;;17.10;33.25
44481;BME280;30184;42.018;23.670;2023-02-19T11:00:00;91577.06;;;17.02;33.75
44481;BME280;30184;42.018;23.670;2023-02-19T11:02:30;91580.88;;;17.19;33.16
44481;BME280;30184;42.018;23.670;2023-02-19T11:05:20;91584.53;;;17.16;33.23
44481;BME280;30184;42.018;23.670;2023-02-19T11:07:53;91565.50;;;16.98;32.58
44481;BME280;30184;42.018;23.670;2023-02-19T11:10:27;91572.47;;;17.23;32.20
44481;BME280;30184;42.018;23.670;2023-02-19T11:12:58;91568.97;;;17.22;31.69
44481;BME280;30184;42.018;23.670;2023-02-19T11:15:31;91566.50;;;17.24;31.60
44481;BME280;30184;42.018;23.670;2023-02-19T11:18:03;91455.59;;;16.57;31.85
44481;BME280;30184;42.018;23.670;2023-02-19T11:20:35;91545.13;;;17.28;31.75
44481;BME280;30184;42.018;23.670;2023-02-19T11:23:12;91486.44;;;16.67;31.02
44481;BME280;30184;42.018;23.670;2023-02-19T11:25:44;91556.09;;;17.43;32.17
44481;BME280;30184;42.018;23.670;2023-02-19T11:28:24;91521.59;;;17.36;31.29
44481;BME280;30184;42.018;23.670;2023-02-19T11:31:12;91556.19;;;17.19;31.11
44481;BME280;30184;42.018;23.670;2023-02-19T11:33:44;91537.00;;;17.48;31.71
44481;BME280;30184;42.018;23.670;2023-02-19T11:36:28;91517.31;;;17.35;31.14
44481;BME280;30184;42.018;23.670;2023-02-19T11:39:06;91504.56;;;17.32;31.17
44481;BME280;30184;42.018;23.670;2023-02-19T11:42:03;91520.56;;;17.63;31.55
44481;BME280;30184;42.018;23.670;2023-02-19T11:44:48;91516.69;;;17.70;31.29
44481;BME280;30184;42.018;23.670;2023-02-19T11:48:04;91508.06;;;17.77;30.90
44481;BME280;30184;42.018;23.670;2023-02-19T11:50:48;91455.06;;;17.56;29.68
44481;BME280;30184;42.018;23.670;2023-02-19T11:53:24;91477.94;;;17.82;29.29
44481;BME280;30184;42.018;23.670;2023-02-19T11:56:05;91493.66;;;17.97;28.76
44481;BME280;30184;42.018;23.670;2023-02-19T11:58:56;91453.66;;;17.75;28.56
44481;BME280;30184;42.018;23.670;2023-02-19T12:10:52;91477.75;;;18.21;28.93
44481;BME280;30184;42.018;23.670;2023-02-19T12:13:38;91478.31;;;18.25;28.84
44481;BME280;30184;42.018;23.670;2023-02-19T12:16:16;91473.13;;;18.12;28.34
44481;BME280;30184;42.018;23.670;2023-02-19T12:19:03;91467.22;;;18.19;28.30
44481;BME280;30184;42.018;23.670;2023-02-19T12:21:50;91464.00;;;18.21;27.75
44481;BME280;30184;42.018;23.670;2023-02-19T12:24:46;91457.22;;;18.16;27.48
44481;BME280;30184;42.018;23.670;2023-02-19T12:27:32;91456.66;;;18.12;26.71
44481;BME280;30184;42.018;23.670;2023-02-19T12:33:24;91450.47;;;18.17;26.84
44481;BME280;30184;42.018;23.670;2023-02-19T12:36:03;91437.50;;;18.18;26.41
44481;BME280;30184;42.018;23.670;2023-02-19T12:38:38;91428.72;;;18.14;26.59
44481;BME280;30184;42.018;23.670;2023-02-19T12:41:19;91428.44;;;18.12;25.63
44481;BME280;30184;42.018;23.670;2023-02-19T12:43:56;91423.72;;;18.12;25.24
44481;BME280;30184;42.018;23.670;2023-02-19T12:46:31;91425.00;;;18.17;25.29
44481;BME280;30184;42.018;23.670;2023-02-19T12:49:05;91424.53;;;18.18;25.38
44481;BME280;30184;42.018;23.670;2023-02-19T12:51:40;91426.78;;;18.20;24.52
44481;BME280;30184;42.018;23.670;2023-02-19T12:54:15;91408.53;;;18.17;24.32
44481;BME280;30184;42.018;23.670;2023-02-19T12:56:49;91267.94;;;16.97;25.27
44481;BME280;30184;42.018;23.670;2023-02-19T12:59:23;91408.31;;;18.20;25.20
44481;BME280;30184;42.018;23.670;2023-02-19T13:02:01;91412.38;;;18.25;25.19
44481;BME280;30184;42.018;23.670;2023-02-19T13:04:39;91404.63;;;18.23;24.24
44481;BME280;30184;42.018;23.670;2023-02-19T13:07:15;91404.34;;;18.21;24.41
44481;BME280;30184;42.018;23.670;2023-02-19T13:09:47;91406.63;;;18.23;25.91
44481;BME280;30184;42.018;23.670;2023-02-19T13:12:20;91395.81;;;18.19;24.58
44481;BME280;30184;42.018;23.670;2023-02-19T13:14:55;91405.28;;;18.18;24.79
44481;BME280;30184;42.018;23.670;2023-02-19T13:17:30;91397.53;;;18.17;24.86
44481;BME280;30184;42.018;23.670;2023-02-19T13:20:13;91402.06;;;18.20;24.79
44481;BME280;30184;42.018;23.670;2023-02-19T13:22:48;91394.31;;;18.18;24.82
44481;BME280;30184;42.018;23.670;2023-02-19T13:25:50;91382.31;;;18.16;24.00
44481;BME280;30184;42.018;23.670;2023-02-19T13:28:44;91380.44;;;18.07;25.26
44481;BME280;30184;42.018;23.670;2023-02-19T13:31:31;91393.97;;;18.11;24.42
44481;BME280;30184;42.018;23.670;2023-02-19T13:34:15;91386.03;;;18.13;25.08
44481;BME280;30184;42.018;23.670;2023-02-19T13:36:47;91385.25;;;18.12;24.46
44481;BME280;30184;42.018;23.670;2023-02-19T13:39:18;91384.97;;;18.10;24.51
44481;BME280;30184;42.018;23.670;2023-02-19T13:41:52;91380.44;;;18.07;24.96
44481;BME280;30184;42.018;23.670;2023-02-19T13:44:24;91378.94;;;18.06;24.92